createdAt,value
2023-04-18T00:01:55.025Z,78.31
2023-04-18T00:04:22.927Z,77.44
2023-04-18T00:06:52.192Z,76.55
2023-04-18T00:09:20.017Z,75.46
2023-04-18T00:11:48.399Z,74.60
2023-04-18T00:14:16.494Z,73.66
2023-04-18T00:16:46.249Z,73.13
2023-04-18T00:19:14.270Z,73.15
2023-04-18T00:21:44.589Z,72.14
2023-04-18T00:24:12.701Z,71.66
2023-04-18T00:26:40.603Z,70.69
2023-04-18T00:29:08.449Z,70.10
2023-04-18T00:31:36.599Z,69.23
2023-04-18T00:34:05.767Z,68.33
2023-04-18T00:36:33.578Z,67.90
2023-04-18T00:39:01.332Z,67.25
2023-04-18T00:41:29.558Z,66.95
2023-04-18T00:43:57.372Z,66.52
2023-04-18T00:46:25.441Z,66.06
2023-04-18T00:48:53.436Z,65.51
2023-04-18T00:51:22.622Z,64.78
2023-04-18T00:53:51.298Z,64.72
2023-04-18T00:56:19.167Z,64.43
2023-04-18T00:58:46.983Z,64.75
2023-04-18T01:01:14.750Z,64.41
2023-04-18T01:03:43.954Z,64.56
2023-04-18T01:06:11.909Z,64.65
2023-04-18T01:08:41.828Z,65.06
2023-04-18T01:11:09.616Z,65.16
2023-04-18T01:13:37.378Z,65.58
2023-04-18T01:16:05.724Z,65.96
2023-04-18T01:18:35.096Z,65.85
2023-04-18T01:21:03.311Z,65.84
2023-04-18T01:23:31.466Z,65.88
2023-04-18T01:26:00.631Z,65.98
2023-04-18T01:28:28.516Z,65.99
2023-04-18T01:30:57.092Z,65.91
2023-04-18T01:33:24.885Z,65.87
2023-04-18T01:35:52.712Z,65.61
2023-04-18T01:38:20.500Z,65.59
2023-04-18T01:40:48.340Z,65.72
2023-04-18T01:43:17.568Z,65.53
2023-04-18T01:45:45.387Z,65.71
2023-04-18T01:48:13.237Z,65.56
2023-04-18T01:50:42.989Z,65.81
2023-04-18T01:53:11.806Z,65.79
2023-04-18T01:55:39.586Z,65.71
2023-04-18T01:58:07.761Z,65.51
2023-04-18T02:00:38.649Z,65.61
2023-04-18T02:03:06.711Z,65.45
2023-04-18T02:05:34.628Z,65.36
2023-04-18T02:08:02.399Z,65.41
2023-04-18T02:10:30.158Z,65.54
2023-04-18T02:12:57.932Z,65.56
2023-04-18T02:15:26.329Z,65.55
2023-04-18T02:17:55.634Z,65.61
2023-04-18T02:20:26.176Z,65.66
2023-04-18T02:22:54.630Z,65.91
2023-04-18T02:25:23.603Z,65.67
2023-04-18T02:27:51.784Z,65.85
2023-04-18T02:30:19.692Z,65.82
2023-04-18T02:32:47.475Z,66.10
2023-04-18T02:35:16.999Z,66.03
2023-04-18T02:37:44.797Z,66.07
2023-04-18T02:40:13.956Z,66.40
2023-04-18T02:42:41.776Z,66.45
2023-04-18T02:45:10.358Z,66.52
2023-04-18T02:47:51.190Z,66.44
2023-04-18T02:50:23.390Z,66.65
2023-04-18T02:52:51.726Z,66.55
2023-04-18T02:55:22.022Z,66.40
2023-04-18T02:57:49.901Z,66.52
2023-04-18T03:00:36.474Z,66.51
2023-04-18T03:03:27.921Z,66.74
2023-04-18T03:06:10.547Z,66.66
2023-04-18T03:08:38.872Z,67.11
2023-04-18T03:11:06.691Z,66.99
2023-04-18T03:13:36.237Z,67.14
2023-04-18T03:16:04.622Z,67.17
2023-04-18T03:18:33.114Z,67.21
2023-04-18T03:21:01.022Z,67.30
2023-04-18T03:23:31.908Z,67.23
2023-04-18T03:26:02.316Z,67.47
2023-04-18T03:28:32.535Z,67.53
2023-04-18T03:31:00.969Z,67.60
2023-04-18T03:33:29.782Z,67.54
2023-04-18T03:36:07.459Z,67.58
2023-04-18T03:38:37.869Z,67.65
2023-04-18T03:41:05.870Z,67.65
2023-04-18T03:43:36.114Z,67.74
2023-04-18T03:46:04.135Z,67.81
2023-04-18T03:48:35.756Z,68.16
2023-04-18T03:51:07.097Z,68.22
2023-04-18T03:53:36.973Z,68.36
2023-04-18T03:56:04.850Z,68.34
2023-04-18T03:58:48.297Z,68.47
2023-04-18T04:01:16.515Z,68.59
2023-04-18T04:03:44.479Z,68.82
2023-04-18T04:06:12.703Z,68.80
2023-04-18T04:08:42.040Z,68.94
2023-04-18T04:11:09.855Z,69.32
2023-04-18T04:13:37.656Z,69.36
2023-04-18T04:16:06.857Z,69.39
2023-04-18T04:18:34.713Z,69.51
2023-04-18T04:21:04.551Z,69.58
2023-04-18T04:23:42.867Z,69.90
2023-04-18T04:26:15.778Z,70.11
2023-04-18T04:28:51.658Z,70.33
2023-04-18T04:31:23.503Z,70.35
2023-04-18T04:33:51.772Z,70.34
2023-04-18T04:36:23.079Z,70.46
2023-04-18T04:38:54.217Z,70.65
2023-04-18T04:41:31.593Z,70.86
2023-04-18T04:44:01.847Z,70.87
2023-04-18T04:46:33.787Z,70.85
2023-04-18T04:49:04.769Z,71.10
2023-04-18T04:51:32.688Z,71.21
2023-04-18T04:54:02.234Z,71.39
2023-04-18T04:56:30.088Z,71.58
2023-04-18T04:58:57.884Z,71.74
2023-04-18T05:01:32.212Z,71.79
2023-04-18T05:04:00.397Z,72.05
2023-04-18T05:06:28.586Z,71.92
2023-04-18T05:08:57.563Z,72.19
2023-04-18T05:11:26.731Z,72.26
2023-04-18T05:13:54.567Z,72.40
2023-04-18T05:16:22.534Z,72.66
2023-04-18T05:18:50.362Z,72.67
2023-04-18T05:21:18.126Z,72.83
2023-04-18T05:23:46.353Z,72.80
2023-04-18T05:26:14.213Z,73.18
2023-04-18T05:28:43.581Z,73.14
2023-04-18T05:31:11.462Z,73.28
2023-04-18T05:33:39.272Z,73.40
2023-04-18T05:36:07.733Z,73.57
2023-04-18T05:38:35.658Z,73.71
2023-04-18T05:41:03.449Z,73.88
2023-04-18T05:43:31.230Z,74.03
2023-04-18T05:46:00.389Z,74.00
2023-04-18T05:48:28.524Z,74.38
2023-04-18T05:50:56.397Z,74.41
2023-04-18T05:53:24.229Z,74.53
2023-04-18T05:55:52.046Z,74.52
2023-04-18T05:58:19.789Z,74.79
2023-04-18T06:00:48.238Z,74.87
2023-04-18T06:03:17.639Z,75.15
2023-04-18T06:05:45.888Z,75.21
2023-04-18T06:08:13.892Z,75.22
2023-04-18T06:10:41.668Z,75.47
2023-04-18T06:13:09.422Z,75.48
2023-04-18T06:15:37.240Z,75.59
2023-04-18T06:18:05.303Z,75.48
2023-04-18T06:20:34.433Z,75.57
2023-04-18T06:23:02.204Z,75.83
2023-04-18T06:25:30.287Z,75.83
2023-04-18T06:27:58.116Z,75.93
2023-04-18T06:30:25.917Z,75.84
2023-04-18T06:32:53.715Z,75.68
2023-04-18T06:35:21.565Z,75.60
2023-04-18T06:37:51.030Z,75.29
2023-04-18T06:40:19.002Z,75.22
2023-04-18T06:42:47.103Z,75.20
2023-04-18T06:45:19.435Z,75.12
2023-04-18T06:47:47.898Z,74.86
2023-04-18T06:50:16.498Z,74.73
2023-04-18T06:52:45.621Z,74.46
2023-04-18T06:55:15.291Z,74.50
2023-04-18T06:57:43.782Z,74.44
2023-04-18T07:00:12.472Z,74.60
2023-04-18T07:02:41.124Z,74.61
2023-04-18T07:05:09.907Z,74.64
2023-04-18T07:07:37.810Z,74.45
2023-04-18T07:10:06.860Z,74.33
2023-04-18T07:12:36.031Z,74.22
2023-04-18T07:15:04.720Z,74.08
2023-04-18T07:17:32.749Z,74.27
2023-04-18T07:20:00.795Z,73.97
2023-04-18T07:22:28.558Z,74.42
2023-04-18T07:24:56.357Z,74.29
2023-04-18T07:27:24.142Z,74.17
2023-04-18T07:29:53.271Z,74.04
2023-04-18T07:32:21.145Z,73.99
2023-04-18T07:34:49.074Z,74.41
2023-04-18T07:37:18.960Z,73.97
2023-04-18T07:39:46.894Z,73.96
2023-04-18T07:42:14.876Z,74.13
2023-04-18T07:44:42.762Z,73.58
2023-04-18T07:47:14.206Z,73.67
2023-04-18T07:49:42.044Z,73.26
2023-04-18T07:52:09.840Z,72.70
2023-04-18T07:54:37.704Z,71.77
2023-04-18T07:57:05.515Z,71.32
2023-04-18T07:59:33.283Z,70.79
2023-04-18T08:02:01.151Z,70.74
2023-04-18T08:04:30.769Z,70.57
2023-04-18T08:06:58.639Z,69.05
2023-04-18T08:09:26.469Z,68.26
2023-04-18T08:11:55.219Z,67.59
2023-04-18T08:14:23.035Z,67.44
2023-04-18T08:16:50.828Z,66.73
2023-04-18T08:19:18.640Z,66.47
2023-04-18T08:21:47.786Z,66.25
2023-04-18T08:24:15.539Z,65.57
2023-04-18T08:26:43.313Z,64.14
2023-04-18T08:29:11.718Z,63.48
2023-04-18T08:31:40.086Z,63.20
2023-04-18T08:34:07.908Z,62.87
2023-04-18T08:36:36.197Z,63.10
2023-04-18T08:39:06.285Z,62.92
2023-04-18T08:41:37.878Z,63.63
2023-04-18T08:44:05.917Z,63.86
2023-04-18T08:46:35.836Z,64.01
2023-04-18T08:49:04.903Z,63.84
2023-04-18T08:51:33.852Z,64.06
2023-04-18T08:54:04.465Z,63.65
2023-04-18T08:56:33.648Z,63.14
2023-04-18T08:59:01.376Z,62.88
2023-04-18T09:01:52.154Z,63.41
2023-04-18T09:04:39.765Z,63.25
2023-04-18T09:07:10.120Z,63.62
2023-04-18T09:09:42.301Z,63.79
2023-04-18T09:12:14.315Z,62.40
2023-04-18T09:14:46.857Z,62.42
2023-04-18T09:17:31.582Z,62.64
2023-04-18T09:20:00.184Z,61.95
2023-04-18T09:22:46.179Z,61.82
2023-04-18T09:25:25.994Z,59.61
2023-04-18T09:27:55.253Z,57.99
2023-04-18T09:30:40.104Z,56.60
2023-04-18T09:33:10.218Z,56.05
2023-04-18T09:35:38.548Z,55.95
2023-04-18T09:38:08.359Z,56.19
2023-04-18T09:40:36.524Z,56.13
2023-04-18T09:43:19.302Z,55.07
2023-04-18T09:45:49.220Z,55.14
2023-04-18T09:48:17.105Z,54.90
2023-04-18T09:50:47.118Z,54.44
2023-04-18T09:53:20.771Z,54.91
2023-04-18T09:55:52.363Z,55.34
2023-04-18T09:58:23.459Z,55.86
2023-04-18T10:00:54.170Z,55.67
2023-04-18T10:03:28.688Z,55.64
2023-04-18T10:05:57.889Z,55.76
2023-04-18T10:08:27.341Z,56.84
2023-04-18T10:10:55.922Z,57.14
2023-04-18T10:13:27.057Z,56.91
2023-04-18T10:15:55.819Z,57.55
2023-04-18T10:18:24.874Z,57.42
2023-04-18T10:21:02.197Z,57.75
2023-04-18T10:23:38.136Z,57.69
2023-04-18T10:26:06.729Z,58.18
2023-04-18T10:28:57.856Z,58.12
2023-04-18T10:31:26.963Z,57.13
2023-04-18T10:34:04.653Z,57.01
2023-04-18T10:36:34.132Z,56.79
2023-04-18T10:39:04.245Z,56.05
2023-04-18T10:41:33.455Z,55.65
2023-04-18T10:44:23.740Z,55.63
2023-04-18T10:47:21.691Z,55.45
2023-04-18T10:50:06.100Z,54.78
2023-04-18T10:52:34.411Z,54.75
2023-04-18T10:55:14.474Z,52.71
2023-04-18T10:57:43.665Z,52.86
2023-04-18T11:00:15.261Z,52.98
2023-04-18T11:02:50.094Z,52.01
2023-04-18T11:05:23.913Z,51.35
2023-04-18T11:07:53.025Z,52.28
2023-04-18T11:10:22.700Z,52.55
2023-04-18T11:12:51.015Z,53.10
2023-04-18T11:15:22.502Z,53.08
2023-04-18T11:17:58.358Z,53.88
2023-04-18T11:20:26.593Z,53.99
2023-04-18T11:22:56.186Z,53.65
2023-04-18T11:25:26.951Z,53.99
2023-04-18T11:27:59.212Z,53.97
2023-04-18T11:30:31.324Z,54.17
2023-04-18T11:32:59.275Z,54.25
2023-04-18T11:35:27.430Z,54.90
2023-04-18T11:37:55.522Z,55.20
2023-04-18T11:40:23.410Z,54.68
2023-04-18T11:42:51.147Z,55.10
2023-04-18T11:45:18.906Z,54.92
2023-04-18T11:47:48.193Z,55.62
2023-04-18T11:50:16.145Z,54.67
2023-04-18T11:52:43.902Z,54.71
2023-04-18T11:55:14.073Z,53.74
2023-04-18T11:57:42.587Z,54.22
2023-04-18T12:00:12.360Z,54.89
2023-04-18T12:02:43.102Z,54.91
2023-04-18T12:05:14.975Z,55.17
2023-04-18T12:07:45.792Z,54.58
2023-04-18T12:10:25.720Z,54.90
2023-04-18T12:12:54.435Z,54.88
2023-04-18T12:15:25.256Z,56.22
2023-04-18T12:17:53.251Z,56.84
2023-04-18T12:20:25.141Z,56.58
2023-04-18T12:22:55.087Z,55.85
2023-04-18T12:25:27.031Z,55.88
2023-04-18T12:27:57.886Z,56.61
2023-04-18T12:30:27.423Z,56.94
2023-04-18T12:32:56.836Z,56.65
2023-04-18T12:35:26.797Z,56.49
2023-04-18T12:37:57.107Z,57.62
2023-04-18T12:40:26.270Z,57.30
2023-04-18T12:42:55.331Z,57.75
2023-04-18T12:45:24.280Z,57.49
2023-04-18T12:47:53.251Z,57.57
2023-04-18T12:50:22.783Z,57.60
2023-04-18T12:52:52.866Z,58.47
2023-04-18T12:55:21.124Z,58.19
2023-04-18T12:57:48.998Z,57.93
2023-04-18T13:00:16.895Z,58.06
2023-04-18T13:02:45.983Z,58.12
2023-04-18T13:05:16.566Z,58.26
2023-04-18T13:07:44.821Z,58.57
2023-04-18T13:10:15.531Z,58.64
2023-04-18T13:12:43.318Z,59.05
2023-04-18T13:15:11.917Z,59.46
2023-04-18T13:17:40.536Z,59.06
2023-04-18T13:20:10.607Z,59.40
2023-04-18T13:22:39.068Z,59.17
2023-04-18T13:25:08.310Z,59.51
2023-04-18T13:27:39.557Z,59.33
2023-04-18T13:30:11.482Z,59.80
2023-04-18T13:32:40.469Z,59.57
2023-04-18T13:35:10.629Z,59.78
2023-04-18T13:37:38.959Z,59.77
2023-04-18T13:40:08.050Z,59.89
2023-04-18T13:42:38.566Z,60.20
2023-04-18T13:45:07.304Z,60.14
2023-04-18T13:47:35.863Z,59.32
2023-04-18T13:50:03.963Z,58.87
2023-04-18T13:52:31.763Z,58.31
2023-04-18T13:54:59.562Z,59.29
2023-04-18T13:57:28.391Z,58.43
2023-04-18T13:59:57.472Z,58.24
2023-04-18T14:02:25.394Z,57.62
2023-04-18T14:04:54.856Z,56.46
2023-04-18T14:07:22.882Z,55.54
2023-04-18T14:09:52.024Z,54.62
2023-04-18T14:12:21.593Z,54.47
2023-04-18T14:14:49.374Z,54.68
2023-04-18T14:17:18.521Z,55.18
2023-04-18T14:19:46.441Z,55.24
2023-04-18T14:22:14.262Z,54.36
2023-04-18T14:24:42.070Z,54.28
2023-04-18T14:27:09.828Z,54.56
2023-04-18T14:29:37.580Z,53.41
2023-04-18T14:32:06.949Z,53.11
2023-04-18T14:34:37.385Z,53.81
2023-04-18T14:37:06.542Z,54.00
2023-04-18T14:39:34.311Z,53.40
2023-04-18T14:42:02.210Z,52.75
2023-04-18T14:44:30.706Z,53.02
2023-04-18T14:46:58.561Z,52.70
2023-04-18T14:49:26.386Z,52.08
2023-04-18T14:51:55.922Z,52.02
2023-04-18T14:54:23.720Z,52.82
2023-04-18T14:56:51.492Z,51.59
2023-04-18T14:59:19.410Z,51.22
2023-04-18T15:01:47.569Z,50.40
2023-04-18T15:04:15.913Z,50.03
2023-04-18T15:06:43.990Z,49.59
2023-04-18T15:09:17.418Z,49.71
2023-04-18T15:11:45.184Z,50.84
2023-04-18T15:14:13.150Z,49.24
2023-04-18T15:16:41.155Z,48.30
2023-04-18T15:19:09.030Z,48.36
2023-04-18T15:21:36.824Z,48.71
2023-04-18T15:24:04.710Z,49.41
2023-04-18T15:26:33.893Z,49.75
2023-04-18T15:29:02.479Z,48.80
2023-04-18T15:31:30.594Z,49.25
2023-04-18T15:33:58.381Z,49.89
2023-04-18T15:36:27.681Z,48.83
2023-04-18T15:38:55.492Z,49.31
2023-04-18T15:41:23.280Z,49.30
2023-04-18T15:43:53.469Z,50.45
2023-04-18T15:46:21.270Z,49.23
2023-04-18T15:48:49.068Z,49.87
2023-04-18T15:51:17.239Z,50.48
2023-04-18T15:53:44.993Z,51.18
2023-04-18T15:56:13.760Z,50.87
2023-04-18T15:58:41.803Z,51.28
2023-04-18T16:01:13.079Z,51.28
2023-04-18T16:03:40.958Z,51.27
2023-04-18T16:06:09.942Z,50.82
2023-04-18T16:08:38.181Z,52.08
2023-04-18T16:11:06.215Z,51.75
2023-04-18T16:13:38.291Z,51.33
2023-04-18T16:16:06.966Z,52.19
2023-04-18T16:18:36.245Z,52.20
2023-04-18T16:21:04.085Z,52.20
2023-04-18T16:23:32.841Z,52.40
2023-04-18T16:26:00.627Z,52.42
2023-04-18T16:28:29.940Z,52.37
2023-04-18T16:30:57.896Z,52.57
2023-04-18T16:33:26.175Z,52.41
2023-04-18T16:35:58.481Z,52.11
2023-04-18T16:38:27.328Z,52.39
2023-04-18T16:40:57.022Z,52.98
2023-04-18T16:43:26.787Z,53.29
2023-04-18T16:45:56.371Z,53.37
2023-04-18T16:48:24.720Z,53.84
2023-04-18T16:50:52.615Z,53.84
2023-04-18T16:53:22.327Z,54.28
2023-04-18T16:55:50.395Z,53.96
2023-04-18T16:58:18.358Z,54.54
2023-04-18T17:00:46.303Z,54.67
2023-04-18T17:03:14.268Z,54.64
2023-04-18T17:05:42.207Z,55.67
2023-04-18T17:08:09.987Z,55.64
2023-04-18T17:10:39.140Z,54.76
2023-04-18T17:13:06.897Z,53.71
2023-04-18T17:15:34.631Z,53.88
2023-04-18T17:18:02.581Z,54.60
2023-04-18T17:20:30.427Z,54.87
2023-04-18T17:22:58.315Z,54.97
2023-04-18T17:25:26.118Z,54.82
2023-04-18T17:27:55.233Z,55.43
2023-04-18T17:30:23.201Z,55.53
2023-04-18T17:32:51.083Z,56.26
2023-04-18T17:35:18.962Z,56.43
2023-04-18T17:37:47.507Z,56.49
2023-04-18T17:40:15.643Z,56.70
2023-04-18T17:42:43.472Z,57.30
2023-04-18T17:45:12.660Z,56.44
2023-04-18T17:47:41.109Z,56.85
2023-04-18T17:50:09.749Z,56.79
2023-04-18T17:52:37.616Z,56.98
2023-04-18T17:55:06.298Z,56.18
2023-04-18T17:57:35.361Z,56.01
2023-04-18T18:00:07.282Z,56.05
2023-04-18T18:02:42.355Z,56.17
2023-04-18T18:05:12.985Z,55.92
2023-04-18T18:07:42.965Z,56.25
2023-04-18T18:10:11.669Z,57.04
2023-04-18T18:12:39.998Z,57.05
2023-04-18T18:15:09.588Z,57.15
2023-04-18T18:17:37.515Z,56.75
2023-04-18T18:20:09.667Z,56.90
2023-04-18T18:22:37.475Z,56.76
2023-04-18T18:25:06.132Z,57.18
2023-04-18T18:27:33.953Z,57.08
2023-04-18T18:30:01.707Z,57.46
2023-04-18T18:32:29.562Z,57.37
2023-04-18T18:34:57.361Z,57.45
2023-04-18T18:37:26.729Z,57.77
2023-04-18T18:39:56.190Z,57.92
2023-04-18T18:42:24.157Z,57.96
2023-04-18T18:44:51.973Z,57.94
2023-04-18T18:47:19.826Z,58.09
2023-04-18T18:49:48.685Z,58.19
2023-04-18T18:52:16.899Z,58.38
2023-04-18T18:54:46.063Z,58.44
2023-04-18T18:57:13.846Z,58.68
2023-04-18T18:59:42.607Z,58.36
2023-04-18T19:02:10.494Z,59.06
2023-04-18T19:04:38.738Z,58.70
2023-04-18T19:07:07.249Z,59.03
2023-04-18T19:09:36.806Z,59.28
2023-04-18T19:12:06.899Z,59.64
2023-04-18T19:14:34.696Z,59.51
2023-04-18T19:17:03.022Z,59.74
2023-04-18T19:19:30.920Z,59.97
2023-04-18T19:22:00.444Z,59.87
2023-04-18T19:24:28.605Z,59.92
2023-04-18T19:26:56.788Z,60.23
2023-04-18T19:29:30.662Z,60.63
2023-04-18T19:32:00.412Z,60.86
2023-04-18T19:34:28.288Z,61.11
2023-04-18T19:36:56.073Z,60.95
2023-04-18T19:39:23.858Z,61.33
2023-04-18T19:41:51.661Z,61.52
2023-04-18T19:44:19.457Z,61.88
2023-04-18T19:46:48.586Z,61.87
2023-04-18T19:49:16.578Z,61.97
2023-04-18T19:51:44.507Z,62.13
2023-04-18T19:54:12.270Z,62.28
2023-04-18T19:56:40.063Z,62.52
2023-04-18T19:59:10.925Z,62.47
2023-04-18T20:01:39.216Z,62.63
2023-04-18T20:04:08.651Z,62.95
2023-04-18T20:06:37.627Z,63.31
2023-04-18T20:09:05.790Z,63.48
2023-04-18T20:11:33.590Z,63.63
2023-04-18T20:14:01.402Z,63.62
2023-04-18T20:16:29.258Z,63.86
2023-04-18T20:18:57.301Z,63.73
2023-04-18T20:21:27.256Z,64.02
2023-04-18T20:23:56.546Z,63.87
2023-04-18T20:26:24.347Z,64.13
2023-04-18T20:28:52.152Z,64.56
2023-04-18T20:31:19.974Z,64.37
2023-04-18T20:33:47.746Z,63.98
2023-04-18T20:36:17.570Z,64.54
2023-04-18T20:38:46.777Z,64.45
2023-04-18T20:41:14.974Z,64.68
2023-04-18T20:43:43.508Z,64.72
2023-04-18T20:46:12.830Z,64.86
2023-04-18T20:48:40.757Z,64.74
2023-04-18T20:51:08.509Z,65.16
2023-04-18T20:53:36.290Z,65.28
2023-04-18T20:56:05.825Z,65.24
2023-04-18T20:58:33.591Z,65.10
2023-04-18T21:01:01.409Z,65.55
2023-04-18T21:03:29.283Z,65.81
2023-04-18T21:05:57.158Z,65.63
2023-04-18T21:08:24.944Z,65.91
2023-04-18T21:10:53.230Z,65.77
2023-04-18T21:13:22.368Z,66.03
2023-04-18T21:15:51.866Z,65.85
2023-04-18T21:18:19.784Z,66.27
2023-04-18T21:20:47.561Z,66.38
2023-04-18T21:23:15.374Z,66.29
2023-04-18T21:25:43.134Z,66.14
2023-04-18T21:28:10.992Z,66.07
2023-04-18T21:30:40.220Z,66.63
2023-04-18T21:33:07.984Z,66.55
2023-04-18T21:35:35.751Z,66.54
2023-04-18T21:38:03.567Z,66.65
2023-04-18T21:40:33.244Z,66.58
2023-04-18T21:43:01.038Z,67.00
2023-04-18T21:45:28.827Z,67.28
2023-04-18T21:47:58.016Z,67.31
2023-04-18T21:50:26.063Z,67.47
2023-04-18T21:52:53.808Z,67.55
2023-04-18T21:55:21.609Z,67.42
2023-04-18T21:57:49.364Z,68.04
2023-04-18T22:00:17.854Z,67.77
2023-04-18T22:02:46.159Z,68.28
2023-04-18T22:05:16.117Z,68.42
2023-04-18T22:07:56.881Z,68.65
2023-04-18T22:10:26.173Z,68.75
2023-04-18T22:12:54.475Z,69.04
2023-04-18T22:15:22.470Z,69.21
2023-04-18T22:17:50.449Z,69.49
2023-04-18T22:20:19.690Z,69.38
2023-04-18T22:22:47.417Z,69.79
2023-04-18T22:25:15.270Z,69.77
2023-04-18T22:27:43.607Z,70.07
2023-04-18T22:30:12.687Z,69.92
2023-04-18T22:32:41.699Z,70.16
2023-04-18T22:35:10.537Z,70.55
2023-04-18T22:37:39.662Z,70.59
2023-04-18T22:40:08.946Z,70.66
2023-04-18T22:42:38.078Z,70.84
2023-04-18T22:45:07.797Z,71.16
2023-04-18T22:47:35.586Z,70.98
2023-04-18T22:50:03.535Z,70.98
2023-04-18T22:52:31.471Z,71.59
2023-04-18T22:55:00.626Z,71.55
2023-04-18T22:57:28.415Z,71.52
2023-04-18T22:59:56.184Z,71.83
2023-04-18T23:02:24.112Z,71.84
2023-04-18T23:04:53.354Z,72.01
2023-04-18T23:07:21.196Z,72.29
2023-04-18T23:09:48.939Z,72.14
2023-04-18T23:12:18.101Z,72.31
2023-04-18T23:14:45.886Z,72.45
2023-04-18T23:17:13.644Z,72.74
2023-04-18T23:19:41.507Z,73.05
2023-04-18T23:22:09.286Z,73.09
2023-04-18T23:24:37.054Z,73.20
2023-04-18T23:27:04.878Z,73.55
2023-04-18T23:29:37.674Z,73.49
2023-04-18T23:32:06.313Z,73.94
2023-04-18T23:34:34.138Z,73.64
2023-04-18T23:37:01.911Z,73.74
2023-04-18T23:39:29.722Z,73.83
2023-04-18T23:41:57.515Z,74.18
2023-04-18T23:44:25.370Z,74.30
2023-04-18T23:46:54.508Z,74.73
2023-04-18T23:49:22.314Z,74.91
2023-04-18T23:51:50.053Z,75.01
2023-04-18T23:54:17.824Z,74.78
2023-04-18T23:56:45.615Z,75.15
2023-04-18T23:59:13.380Z,75.54
